Osseo, WI (54758)

3:40 PM CDT on July 06, 2015 (GMT -0500)
KWIOSSEO2 | | Change Station
CLOSE
Current Station
Personal Weather Station
Location: Osseo, WI
Elevation: 997 ft
Nearby Weather Stations

Elev 997 ft 44.59 °N, 91.27 °W | Updated 2 minutes ago

Rain
Rain
67.3 °F
Feels Like 67.3 °F
N
1.0
Wind Variable Wind from NNE
Gusts 5.0 mph

Today
High -- | Low -- °F
--% Chance of Precip.
Yesterday
High -- | Low -- °F
Precip. -- in
5:26 AM 8:52 PM
Waning Gibbous, 72% visible
Pressure 29.85 in
Visibility 10.0 miles
Clouds Mostly Cloudy 1500 ft
Mostly Cloudy 3000 ft
Overcast 5500 ft
Dew Point 64 °F
Humidity 90%
Rainfall -999.00 in
Snow Depth Not available.
UV 3 out of 12
Pollen .60 out of 12
Air Quality Not available.
Flu Activity Not available.
SPECI KEAU 062018Z AUTO 36018G24KT 10SM BKN015 BKN030 OVC055 19/16 A2985 RMK AO2 RAE05 P0000 T01890156

More Conditions Fewer Conditions

Pressure 29.85 in
Visibility 10.0 miles
Clouds Mostly Cloudy 1500 ft
Mostly Cloudy 3000 ft
Overcast 5500 ft
Dew Point 64 °F
Humidity 90%
Rainfall -999.00 in
Snow Depth Not available.
UV 3 out of 12
Pollen .60 out of 12
Air Quality Not available.
Flu Activity Not available.
SPECI KEAU 062018Z AUTO 36018G24KT 10SM BKN015 BKN030 OVC055 19/16 A2985 RMK AO2 RAE05 P0000 T01890156

More Conditions Fewer Conditions

10-Day Weather Forecast

×

Almanac

Astronomy

Jul. 06, 2015 Rise Set
Actual Time
Civil Twilight
Nautical Twilight
Astronomical Twilight
Moon
Length of Visible Light
Length of Day
Tomorrow will be .
, % of the Moon is Illuminated

Today's Extremes

State Highs State Lows

Community

WunderPhotos

Upload Photos

1,835,638 photos uploaded!

WunderBlogs® & News

Nearby

Air Quality

  Air Quality AQ Index Pollutant
Not available.

Snow Depth

Station Depth Elevation

Earthquake Activity

City Distance Mag. Time & Date
Minimum magnitude displayed is 2.5.

Coastal Water Temperatures

Place Temperature

Stations

Nearby Weather Stations

Station Location Temp. Windchill Dew Point Humidity Wind Precip. Elev Updated Type